createdAt,value
2023-01-22T00:00:06.768Z,23.20
2023-01-22T00:02:36.356Z,19.98
2023-01-22T00:05:03.930Z,20.25
2023-01-22T00:07:31.102Z,18.30
2023-01-22T00:09:59.889Z,21.02
2023-01-22T00:12:27.467Z,18.42
2023-01-22T00:14:54.628Z,19.05
2023-01-22T00:17:21.962Z,21.27
2023-01-22T00:19:49.107Z,24.63
2023-01-22T00:22:16.298Z,25.35
2023-01-22T00:24:43.565Z,21.30
2023-01-22T00:27:10.923Z,20.80
2023-01-22T00:29:38.087Z,19.77
2023-01-22T00:32:05.361Z,19.85
2023-01-22T00:34:32.666Z,21.02
2023-01-22T00:36:59.853Z,18.83
2023-01-22T00:39:27.107Z,20.83
2023-01-22T00:41:54.280Z,20.33
2023-01-22T00:44:21.443Z,21.13
2023-01-22T00:46:49.056Z,20.95
2023-01-22T00:49:16.307Z,20.80
2023-01-22T00:51:43.461Z,20.80
2023-01-22T00:54:10.636Z,20.77
2023-01-22T00:56:37.844Z,20.50
2023-01-22T00:59:10.344Z,20.60
2023-01-22T01:01:40.413Z,22.02
2023-01-22T01:04:07.718Z,19.10
2023-01-22T01:06:34.904Z,20.20
2023-01-22T01:09:02.080Z,19.17
2023-01-22T01:11:30.203Z,20.70
2023-01-22T01:13:57.605Z,20.02
2023-01-22T01:16:31.978Z,18.95
2023-01-22T01:19:03.181Z,20.00
2023-01-22T01:21:31.389Z,18.65
2023-01-22T01:23:59.419Z,22.77
2023-01-22T01:26:26.779Z,20.02
2023-01-22T01:28:54.161Z,18.38
2023-01-22T01:31:22.455Z,18.77
2023-01-22T01:33:50.021Z,19.42
2023-01-22T01:36:30.640Z,20.65
2023-01-22T01:39:06.098Z,19.58
2023-01-22T01:41:33.241Z,19.35
2023-01-22T01:44:07.347Z,22.08
2023-01-22T01:46:37.291Z,20.25
2023-01-22T01:49:04.825Z,23.52
2023-01-22T01:51:36.299Z,22.27
2023-01-22T01:54:04.861Z,17.95
2023-01-22T01:56:34.315Z,22.20
2023-01-22T01:59:03.444Z,19.20
2023-01-22T02:01:31.568Z,19.60
2023-01-22T02:03:58.905Z,21.20
2023-01-22T02:06:26.304Z,20.50
2023-01-22T02:08:56.538Z,21.95
2023-01-22T02:11:23.965Z,21.80
2023-01-22T02:13:53.849Z,22.08
2023-01-22T02:16:21.043Z,25.38
2023-01-22T02:18:48.272Z,23.50
2023-01-22T02:21:28.643Z,20.10
2023-01-22T02:23:55.809Z,21.20
2023-01-22T02:26:23.100Z,21.13
2023-01-22T02:28:50.263Z,19.73
2023-01-22T02:31:17.457Z,20.48
2023-01-22T02:33:44.565Z,23.00
2023-01-22T02:36:11.973Z,20.75
2023-01-22T02:38:39.165Z,19.52
2023-01-22T02:41:06.354Z,21.25
2023-01-22T02:43:33.506Z,21.25
2023-01-22T02:46:01.400Z,22.70
2023-01-22T02:48:28.538Z,20.20
2023-01-22T02:50:55.688Z,20.40
2023-01-22T02:53:22.904Z,24.00
2023-01-22T02:55:50.062Z,20.05
2023-01-22T02:58:17.478Z,24.50
2023-01-22T03:00:44.664Z,22.42
2023-01-22T03:03:15.547Z,21.50
2023-01-22T03:05:49.648Z,20.92
2023-01-22T03:08:17.135Z,21.83
2023-01-22T03:10:44.692Z,21.27
2023-01-22T03:13:31.050Z,22.55
2023-01-22T03:16:16.782Z,24.35
2023-01-22T03:19:03.300Z,22.15
2023-01-22T03:21:30.446Z,23.60
2023-01-22T03:23:57.591Z,21.05
2023-01-22T03:26:24.786Z,22.58
2023-01-22T03:28:52.083Z,25.58
2023-01-22T03:31:19.375Z,21.70
2023-01-22T03:33:46.713Z,23.25
2023-01-22T03:36:14.666Z,21.77
2023-01-22T03:38:41.910Z,22.48
2023-01-22T03:41:11.609Z,25.50
2023-01-22T03:43:38.995Z,23.70
2023-01-22T03:46:07.341Z,24.55
2023-01-22T03:48:34.564Z,24.13
2023-01-22T03:51:08.435Z,25.88
2023-01-22T03:53:35.896Z,24.27
2023-01-22T03:56:05.152Z,25.23
2023-01-22T03:58:32.896Z,21.25
2023-01-22T04:01:04.770Z,24.52
2023-01-22T04:03:32.419Z,20.10
2023-01-22T04:06:02.964Z,23.63
2023-01-22T04:08:31.040Z,25.35
2023-01-22T04:10:58.794Z,22.88
2023-01-22T04:13:26.500Z,24.02
2023-01-22T04:15:53.990Z,25.17
2023-01-22T04:18:22.034Z,26.08
2023-01-22T04:20:49.663Z,23.83
2023-01-22T04:23:16.989Z,22.00
2023-01-22T04:25:44.830Z,21.67
2023-01-22T04:28:12.370Z,24.90
2023-01-22T04:30:39.914Z,23.73
2023-01-22T04:33:07.214Z,24.23
2023-01-22T04:35:35.641Z,27.55
2023-01-22T04:38:03.108Z,22.13
2023-01-22T04:40:30.310Z,23.85
2023-01-22T04:43:00.965Z,22.88
2023-01-22T04:45:28.138Z,24.15
2023-01-22T04:47:55.257Z,25.27
2023-01-22T04:50:23.836Z,23.83
2023-01-22T04:52:51.713Z,22.92
2023-01-22T04:55:19.118Z,20.48
2023-01-22T04:57:46.268Z,23.42
2023-01-22T05:00:13.936Z,24.80
2023-01-22T05:02:41.138Z,22.08
2023-01-22T05:05:09.357Z,25.60
2023-01-22T05:07:36.513Z,24.73
2023-01-22T05:10:03.725Z,23.73
2023-01-22T05:12:31.737Z,22.58
2023-01-22T05:14:59.278Z,24.85
2023-01-22T05:17:26.436Z,22.80
2023-01-22T05:19:53.686Z,24.13
2023-01-22T05:22:20.890Z,23.13
2023-01-22T05:24:48.015Z,24.10
2023-01-22T05:27:15.201Z,23.85
2023-01-22T05:29:42.369Z,24.17
2023-01-22T05:32:09.656Z,21.55
2023-01-22T05:34:36.812Z,26.58
2023-01-22T05:37:04.048Z,22.00
2023-01-22T05:39:31.255Z,22.20
2023-01-22T05:41:58.403Z,21.85
2023-01-22T05:44:26.397Z,24.33
2023-01-22T05:46:53.573Z,23.90
2023-01-22T05:49:20.782Z,20.70
2023-01-22T05:51:47.965Z,22.85
2023-01-22T05:54:15.130Z,24.45
2023-01-22T05:56:42.256Z,24.15
2023-01-22T05:59:09.400Z,23.55
2023-01-22T06:01:36.550Z,25.05
2023-01-22T06:04:03.680Z,23.17
2023-01-22T06:06:30.805Z,21.35
2023-01-22T06:08:58.267Z,22.75
2023-01-22T06:11:25.877Z,21.88
2023-01-22T06:13:53.016Z,22.55
2023-01-22T06:16:20.410Z,22.17
2023-01-22T06:18:47.604Z,22.85
2023-01-22T06:21:14.815Z,25.08
2023-01-22T06:23:41.970Z,23.65
2023-01-22T06:26:09.188Z,25.25
2023-01-22T06:28:36.356Z,24.92
2023-01-22T06:31:07.591Z,27.90
2023-01-22T06:33:35.561Z,22.85
2023-01-22T06:36:03.219Z,21.80
2023-01-22T06:38:30.609Z,22.75
2023-01-22T06:40:58.893Z,23.77
2023-01-22T06:43:26.572Z,23.65
2023-01-22T06:45:54.347Z,24.38
2023-01-22T06:48:21.681Z,24.98
2023-01-22T06:50:48.985Z,22.92
2023-01-22T06:53:16.186Z,23.17
2023-01-22T06:55:43.349Z,22.67
2023-01-22T06:58:10.535Z,22.60
2023-01-22T07:00:37.801Z,18.85
2023-01-22T07:03:08.680Z,22.60
2023-01-22T07:05:36.159Z,21.42
2023-01-22T07:08:03.370Z,21.13
2023-01-22T07:10:30.561Z,22.77
2023-01-22T07:13:01.622Z,20.15
2023-01-22T07:15:28.952Z,21.13
2023-01-22T07:17:56.154Z,21.10
2023-01-22T07:20:23.735Z,24.33
2023-01-22T07:22:51.533Z,25.58
2023-01-22T07:25:19.617Z,24.05
2023-01-22T07:27:46.852Z,21.33
2023-01-22T07:30:14.336Z,24.10
2023-01-22T07:32:41.562Z,19.77
2023-01-22T07:35:09.146Z,22.63
2023-01-22T07:37:36.600Z,22.48
2023-01-22T07:40:04.870Z,22.17
2023-01-22T07:42:32.105Z,21.75
2023-01-22T07:44:59.301Z,24.83
2023-01-22T07:47:26.456Z,23.92
2023-01-22T07:49:53.608Z,23.63
2023-01-22T07:52:20.749Z,24.23
2023-01-22T07:54:47.916Z,26.02
2023-01-22T07:57:16.645Z,24.40
2023-01-22T07:59:43.862Z,21.67
2023-01-22T08:02:14.672Z,22.80
2023-01-22T08:04:42.686Z,22.23
2023-01-22T08:07:19.794Z,23.02
2023-01-22T08:09:46.975Z,24.17
2023-01-22T08:12:14.167Z,24.75
2023-01-22T08:14:41.325Z,24.88
2023-01-22T08:17:08.465Z,23.10
2023-01-22T08:19:35.572Z,24.27
2023-01-22T08:22:02.829Z,24.50
2023-01-22T08:24:30.081Z,23.00
2023-01-22T08:26:57.287Z,22.52
2023-01-22T08:29:24.640Z,25.48
2023-01-22T08:31:53.220Z,25.48
2023-01-22T08:34:20.904Z,28.00
2023-01-22T08:36:48.050Z,23.08
2023-01-22T08:39:15.247Z,27.95
2023-01-22T08:41:42.571Z,26.80
2023-01-22T08:44:12.862Z,27.52
2023-01-22T08:46:40.880Z,26.17
2023-01-22T08:49:08.576Z,24.80
2023-01-22T08:51:36.094Z,25.15
2023-01-22T08:54:03.291Z,26.38
2023-01-22T08:56:30.469Z,25.70
2023-01-22T08:59:00.160Z,28.85
2023-01-22T09:01:27.752Z,27.20
2023-01-22T09:03:55.059Z,26.88
2023-01-22T09:06:23.221Z,24.13
2023-01-22T09:08:50.402Z,28.70
2023-01-22T09:11:17.562Z,24.75
2023-01-22T09:13:44.723Z,26.27
2023-01-22T09:16:12.116Z,28.25
2023-01-22T09:18:40.049Z,28.63
2023-01-22T09:21:08.441Z,25.45
2023-01-22T09:23:35.631Z,27.38
2023-01-22T09:26:02.890Z,27.73
2023-01-22T09:28:30.105Z,25.77
2023-01-22T09:30:57.355Z,25.50
2023-01-22T09:33:24.533Z,27.80
2023-01-22T09:35:51.738Z,27.27
2023-01-22T09:38:18.927Z,25.70
2023-01-22T09:40:50.625Z,28.60
2023-01-22T09:43:36.874Z,27.42
2023-01-22T09:46:08.528Z,23.42
2023-01-22T09:48:37.813Z,23.23
2023-01-22T09:51:05.448Z,23.85
2023-01-22T09:53:33.475Z,24.20
2023-01-22T09:56:00.681Z,22.25
2023-01-22T09:58:27.875Z,26.60
2023-01-22T10:01:00.420Z,24.55
2023-01-22T10:03:32.218Z,23.33
2023-01-22T10:06:02.115Z,22.20
2023-01-22T10:08:33.967Z,25.80
2023-01-22T10:11:01.215Z,24.90
2023-01-22T10:13:30.010Z,23.27
2023-01-22T10:15:57.692Z,22.70
2023-01-22T10:18:30.470Z,26.98
2023-01-22T10:20:58.924Z,22.52
2023-01-22T10:23:26.848Z,22.70
2023-01-22T10:25:56.244Z,22.98
2023-01-22T10:28:28.192Z,19.48
2023-01-22T10:30:58.843Z,21.42
2023-01-22T10:33:27.602Z,19.42
2023-01-22T10:35:56.801Z,20.15
2023-01-22T10:38:24.121Z,19.75
2023-01-22T10:41:01.897Z,21.70
2023-01-22T10:43:36.302Z,17.65
2023-01-22T10:46:13.380Z,19.70
2023-01-22T10:48:40.552Z,16.17
2023-01-22T10:51:20.304Z,16.98
2023-01-22T10:53:49.200Z,18.50
2023-01-22T10:56:25.956Z,16.30
2023-01-22T10:58:53.377Z,14.65
2023-01-22T11:01:34.013Z,15.05
2023-01-22T11:04:12.138Z,16.70
2023-01-22T11:06:45.525Z,15.80
2023-01-22T11:09:16.736Z,17.40
2023-01-22T11:11:47.162Z,16.08
2023-01-22T11:14:18.609Z,17.98
2023-01-22T11:16:48.333Z,20.98
2023-01-22T11:19:23.791Z,16.38
2023-01-22T11:21:57.165Z,20.30
2023-01-22T11:24:28.898Z,16.70
2023-01-22T11:27:19.728Z,15.20
2023-01-22T11:29:46.978Z,15.68
2023-01-22T11:32:25.893Z,17.02
2023-01-22T11:35:02.342Z,20.15
2023-01-22T11:37:46.269Z,19.05
2023-01-22T11:40:16.663Z,19.35
2023-01-22T11:42:51.472Z,20.65
2023-01-22T11:45:18.625Z,18.08
2023-01-22T11:47:54.925Z,17.08
2023-01-22T11:50:33.488Z,17.52
2023-01-22T11:53:19.308Z,17.90
2023-01-22T11:56:04.913Z,15.88
2023-01-22T11:58:45.394Z,14.77
2023-01-22T12:01:31.505Z,14.23
2023-01-22T12:04:01.743Z,15.90
2023-01-22T12:06:38.240Z,15.55
2023-01-22T12:09:22.760Z,16.52
2023-01-22T12:11:49.916Z,18.88
2023-01-22T12:14:27.155Z,15.60
2023-01-22T12:17:12.826Z,13.77
2023-01-22T12:19:40.720Z,15.43
2023-01-22T12:22:29.888Z,15.32
2023-01-22T12:25:04.525Z,17.17
2023-01-22T12:27:35.509Z,15.65
2023-01-22T12:30:24.482Z,12.82
2023-01-22T12:33:04.382Z,17.55
2023-01-22T12:35:32.870Z,16.15
2023-01-22T12:38:00.047Z,14.18
2023-01-22T12:40:30.204Z,13.57
2023-01-22T12:43:01.290Z,11.70
2023-01-22T12:45:33.771Z,17.30
2023-01-22T12:48:20.603Z,17.92
2023-01-22T12:50:54.906Z,16.67
2023-01-22T12:53:26.908Z,15.02
2023-01-22T12:56:03.347Z,14.82
2023-01-22T12:58:31.920Z,15.93
2023-01-22T13:01:02.196Z,14.45
2023-01-22T13:03:32.035Z,13.98
2023-01-22T13:06:00.559Z,14.15
2023-01-22T13:08:35.582Z,13.77
2023-01-22T13:11:04.525Z,13.25
2023-01-22T13:13:38.057Z,12.52
2023-01-22T13:16:06.819Z,14.15
2023-01-22T13:18:36.425Z,13.57
2023-01-22T13:21:05.815Z,11.55
2023-01-22T13:23:34.362Z,13.80
2023-01-22T13:26:01.858Z,13.85
2023-01-22T13:28:29.235Z,13.57
2023-01-22T13:31:05.571Z,16.83
2023-01-22T13:33:33.065Z,18.17
2023-01-22T13:36:08.532Z,14.48
2023-01-22T13:38:35.744Z,15.48
2023-01-22T13:41:08.969Z,16.35
2023-01-22T13:43:37.362Z,19.42
2023-01-22T13:46:05.781Z,16.00
2023-01-22T13:48:33.109Z,18.27
2023-01-22T13:51:02.808Z,13.90
2023-01-22T13:53:30.025Z,13.23
2023-01-22T13:55:57.687Z,14.60
2023-01-22T13:58:46.722Z,15.27
2023-01-22T14:01:35.213Z,15.32
2023-01-22T14:04:07.366Z,14.45
2023-01-22T14:06:49.537Z,15.32
2023-01-22T14:09:27.171Z,14.55
2023-01-22T14:11:54.790Z,15.20
2023-01-22T14:14:22.035Z,12.15
2023-01-22T14:16:49.233Z,13.05
2023-01-22T14:19:16.492Z,13.18
2023-01-22T14:21:43.674Z,12.50
2023-01-22T14:24:10.847Z,12.35
2023-01-22T14:26:38.039Z,12.40
2023-01-22T14:29:05.258Z,12.77
2023-01-22T14:31:32.466Z,12.15
2023-01-22T14:33:59.692Z,12.63
2023-01-22T14:36:26.894Z,14.05
2023-01-22T14:38:55.384Z,16.08
2023-01-22T14:41:22.599Z,14.45
2023-01-22T14:43:49.782Z,12.63
2023-01-22T14:46:16.922Z,14.07
2023-01-22T14:48:44.059Z,13.30
2023-01-22T14:51:11.889Z,14.52
2023-01-22T14:53:40.073Z,15.32
2023-01-22T14:56:07.392Z,11.93
2023-01-22T14:58:34.602Z,17.05
2023-01-22T15:01:01.821Z,14.00
2023-01-22T15:03:33.257Z,13.80
2023-01-22T15:06:00.438Z,16.17
2023-01-22T15:08:27.594Z,14.60
2023-01-22T15:10:54.707Z,14.38
2023-01-22T15:13:21.869Z,14.18
2023-01-22T15:15:48.985Z,16.00
2023-01-22T15:18:16.128Z,19.08
2023-01-22T15:20:43.300Z,17.10
2023-01-22T15:23:10.513Z,16.38
2023-01-22T15:25:37.656Z,18.05
2023-01-22T15:28:04.910Z,17.17
2023-01-22T15:30:32.862Z,16.40
2023-01-22T15:32:59.992Z,16.90
2023-01-22T15:35:27.229Z,17.27
2023-01-22T15:37:54.488Z,17.02
2023-01-22T15:40:21.965Z,15.80
2023-01-22T15:42:49.194Z,14.57
2023-01-22T15:45:16.348Z,16.15
2023-01-22T15:47:43.511Z,16.33
2023-01-22T15:50:10.994Z,16.98
2023-01-22T15:52:38.131Z,18.15
2023-01-22T15:55:05.544Z,15.45
2023-01-22T15:57:32.692Z,18.08
2023-01-22T15:59:59.848Z,15.95
2023-01-22T16:02:27.019Z,18.35
2023-01-22T16:04:54.457Z,16.75
2023-01-22T16:07:21.581Z,17.83
2023-01-22T16:09:48.902Z,19.05
2023-01-22T16:12:16.032Z,20.63
2023-01-22T16:14:43.368Z,20.88
2023-01-22T16:17:10.662Z,21.30
2023-01-22T16:19:38.253Z,19.48
2023-01-22T16:22:05.527Z,20.88
2023-01-22T16:24:32.861Z,23.08
2023-01-22T16:27:00.254Z,20.95
2023-01-22T16:29:27.453Z,20.27
2023-01-22T16:31:54.825Z,20.42
2023-01-22T16:34:22.415Z,21.75
2023-01-22T16:36:49.555Z,22.25
2023-01-22T16:39:21.599Z,24.25
2023-01-22T16:41:49.589Z,24.83
2023-01-22T16:44:18.052Z,24.75
2023-01-22T16:46:46.328Z,25.42
2023-01-22T16:49:16.605Z,24.60
2023-01-22T16:51:45.444Z,25.23
2023-01-22T16:54:32.905Z,27.70
2023-01-22T16:57:01.438Z,25.13
2023-01-22T16:59:28.772Z,26.00
2023-01-22T17:01:57.096Z,25.10
2023-01-22T17:04:24.269Z,23.75
2023-01-22T17:06:52.631Z,23.60
2023-01-22T17:09:21.178Z,22.75
2023-01-22T17:11:52.135Z,25.42
2023-01-22T17:14:20.798Z,26.23
2023-01-22T17:16:48.368Z,27.33
2023-01-22T17:19:15.562Z,23.83
2023-01-22T17:21:42.757Z,26.50
2023-01-22T17:24:11.617Z,26.33
2023-01-22T17:26:39.225Z,22.17
2023-01-22T17:29:09.179Z,23.77
2023-01-22T17:31:37.165Z,23.80
2023-01-22T17:34:04.617Z,25.27
2023-01-22T17:36:32.090Z,26.27
2023-01-22T17:39:01.258Z,27.23
2023-01-22T17:41:30.153Z,27.00
2023-01-22T17:43:58.798Z,29.48
2023-01-22T17:46:29.051Z,28.77
2023-01-22T17:48:56.231Z,28.63
2023-01-22T17:51:24.896Z,25.05
2023-01-22T17:53:52.715Z,26.38
2023-01-22T17:56:24.521Z,27.80
2023-01-22T17:58:54.008Z,30.75
2023-01-22T18:01:23.753Z,26.52
2023-01-22T18:03:51.350Z,28.10
2023-01-22T18:06:19.432Z,25.90
2023-01-22T18:08:46.628Z,26.33
2023-01-22T18:11:15.670Z,26.05
2023-01-22T18:13:43.359Z,29.60
2023-01-22T18:16:12.152Z,27.25
2023-01-22T18:18:39.362Z,25.48
2023-01-22T18:21:07.454Z,30.70
2023-01-22T18:23:34.660Z,29.65
2023-01-22T18:26:04.253Z,29.65
2023-01-22T18:28:31.472Z,29.33
2023-01-22T18:31:04.372Z,26.25
2023-01-22T18:33:33.364Z,26.35
2023-01-22T18:36:00.548Z,30.10
2023-01-22T18:38:28.560Z,31.40
2023-01-22T18:40:56.262Z,31.45
2023-01-22T18:43:23.456Z,29.27
2023-01-22T18:45:50.622Z,30.42
2023-01-22T18:48:17.845Z,33.58
2023-01-22T18:50:51.794Z,32.33
2023-01-22T18:53:19.197Z,30.75
2023-01-22T18:55:46.469Z,33.10
2023-01-22T18:58:27.613Z,32.78
2023-01-22T19:00:56.174Z,31.40
2023-01-22T19:03:24.172Z,31.85
2023-01-22T19:05:51.480Z,35.90
2023-01-22T19:08:19.130Z,36.63
2023-01-22T19:10:46.512Z,38.05
2023-01-22T19:13:13.956Z,37.25
2023-01-22T19:15:41.135Z,35.30
2023-01-22T19:18:09.385Z,36.90
2023-01-22T19:20:37.529Z,34.00
2023-01-22T19:23:04.988Z,35.95
2023-01-22T19:25:32.802Z,37.50
2023-01-22T19:28:00.011Z,36.70
2023-01-22T19:30:27.213Z,36.03
2023-01-22T19:32:57.573Z,40.22
2023-01-22T19:35:24.711Z,38.08
2023-01-22T19:37:52.972Z,39.97
2023-01-22T19:40:21.183Z,41.13
2023-01-22T19:42:48.737Z,41.85
2023-01-22T19:45:17.274Z,44.00
2023-01-22T19:47:44.589Z,38.42
2023-01-22T19:50:11.909Z,37.33
2023-01-22T19:52:39.081Z,40.30
2023-01-22T19:55:06.616Z,39.35
2023-01-22T19:57:33.866Z,41.65
2023-01-22T20:00:01.071Z,36.72
2023-01-22T20:02:28.710Z,37.53
2023-01-22T20:04:55.858Z,39.75
2023-01-22T20:07:25.163Z,39.88
2023-01-22T20:09:54.987Z,46.63
2023-01-22T20:12:22.346Z,40.55
2023-01-22T20:14:49.619Z,38.72
2023-01-22T20:17:17.027Z,42.70
2023-01-22T20:19:44.333Z,43.35
2023-01-22T20:22:11.544Z,38.63
2023-01-22T20:24:40.302Z,37.05
2023-01-22T20:27:07.894Z,37.00
2023-01-22T20:29:35.764Z,38.83
2023-01-22T20:32:03.653Z,41.80
2023-01-22T20:34:30.927Z,38.28
2023-01-22T20:37:01.073Z,40.83
2023-01-22T20:39:28.231Z,37.17
2023-01-22T20:41:55.547Z,35.05
2023-01-22T20:44:22.914Z,31.75
2023-01-22T20:46:50.997Z,32.85
2023-01-22T20:49:18.340Z,33.55
2023-01-22T20:51:45.553Z,34.95
2023-01-22T20:54:13.816Z,36.67
2023-01-22T20:56:41.037Z,38.42
2023-01-22T20:59:11.698Z,39.50
2023-01-22T21:01:39.134Z,40.67
2023-01-22T21:04:06.728Z,39.08
2023-01-22T21:06:35.429Z,36.78
2023-01-22T21:09:02.730Z,36.40
2023-01-22T21:11:31.176Z,33.92
2023-01-22T21:13:59.163Z,38.20
2023-01-22T21:16:27.621Z,38.13
2023-01-22T21:18:55.906Z,32.80
2023-01-22T21:21:23.362Z,35.95
2023-01-22T21:23:52.206Z,34.78
2023-01-22T21:26:22.745Z,35.35
2023-01-22T21:28:57.033Z,30.80
2023-01-22T21:31:24.659Z,35.25
2023-01-22T21:34:02.724Z,34.88
2023-01-22T21:36:31.059Z,35.22
2023-01-22T21:38:58.281Z,37.88
2023-01-22T21:41:25.613Z,32.97
2023-01-22T21:44:11.403Z,33.92
2023-01-22T21:46:39.906Z,34.03
2023-01-22T21:49:17.340Z,33.70
2023-01-22T21:51:50.677Z,32.67
2023-01-22T21:54:19.579Z,36.35
2023-01-22T21:56:46.972Z,35.55
2023-01-22T21:59:14.418Z,38.50
2023-01-22T22:01:41.658Z,36.55
2023-01-22T22:04:09.325Z,34.90
2023-01-22T22:06:37.151Z,36.70
2023-01-22T22:09:05.904Z,35.50
2023-01-22T22:11:33.345Z,34.53
2023-01-22T22:14:00.501Z,32.38
2023-01-22T22:16:27.891Z,31.63
2023-01-22T22:18:56.479Z,33.28
2023-01-22T22:21:23.754Z,34.63
2023-01-22T22:23:51.095Z,30.48
2023-01-22T22:26:18.592Z,35.72
2023-01-22T22:28:46.071Z,33.58
2023-01-22T22:31:14.886Z,31.08
2023-01-22T22:33:42.828Z,31.98
2023-01-22T22:36:10.656Z,35.17
2023-01-22T22:38:38.259Z,33.40
2023-01-22T22:41:06.727Z,29.33
2023-01-22T22:43:35.489Z,33.60
2023-01-22T22:46:06.920Z,33.58
2023-01-22T22:48:34.154Z,29.90
2023-01-22T22:51:01.625Z,32.45
2023-01-22T22:53:29.222Z,39.05
2023-01-22T22:56:03.543Z,35.20
2023-01-22T22:58:30.747Z,38.53
2023-01-22T23:00:57.962Z,41.47
2023-01-22T23:03:26.410Z,37.80
2023-01-22T23:05:53.626Z,39.13
2023-01-22T23:08:20.828Z,41.63
2023-01-22T23:10:48.011Z,39.72
2023-01-22T23:13:15.267Z,44.28
2023-01-22T23:15:42.420Z,41.97
2023-01-22T23:18:09.640Z,38.20
2023-01-22T23:20:36.839Z,44.45
2023-01-22T23:23:04.067Z,42.75
2023-01-22T23:25:31.233Z,46.17
2023-01-22T23:27:58.531Z,43.00
2023-01-22T23:30:26.929Z,53.20
2023-01-22T23:32:54.105Z,44.72
2023-01-22T23:35:21.279Z,39.83
2023-01-22T23:37:48.506Z,40.63
2023-01-22T23:40:15.672Z,38.85
2023-01-22T23:42:42.828Z,40.97
2023-01-22T23:45:11.915Z,39.75
2023-01-22T23:47:39.212Z,41.22
2023-01-22T23:50:06.628Z,38.97
2023-01-22T23:52:33.803Z,31.13
2023-01-22T23:55:01.130Z,40.53
2023-01-22T23:57:28.320Z,39.17
2023-01-22T23:59:55.429Z,37.38
